createdAt,value
2022-08-31T00:00:28.635Z,21.23
2022-08-31T00:01:28.641Z,21.18
2022-08-31T00:02:28.629Z,21.23
2022-08-31T00:03:28.610Z,21.20
2022-08-31T00:04:28.624Z,21.14
2022-08-31T00:05:28.551Z,21.28
2022-08-31T00:06:28.535Z,21.16
2022-08-31T00:07:28.521Z,21.19
2022-08-31T00:08:28.558Z,21.18
2022-08-31T00:09:28.488Z,21.23
2022-08-31T00:10:31.923Z,21.14
2022-08-31T00:11:28.452Z,21.16
2022-08-31T00:12:28.431Z,21.19
2022-08-31T00:13:28.421Z,21.13
2022-08-31T00:14:28.417Z,21.18
2022-08-31T00:15:28.391Z,21.13
2022-08-31T00:16:28.420Z,21.14
2022-08-31T00:17:28.354Z,21.18
2022-08-31T00:18:28.347Z,21.16
2022-08-31T00:19:28.344Z,21.20
2022-08-31T00:20:33.121Z,21.14
2022-08-31T00:21:28.315Z,21.14
2022-08-31T00:22:28.268Z,21.13
2022-08-31T00:23:28.260Z,21.16
2022-08-31T00:24:28.262Z,21.14
2022-08-31T00:25:28.223Z,21.11
2022-08-31T00:26:28.203Z,21.08
2022-08-31T00:27:28.187Z,21.13
2022-08-31T00:28:28.167Z,21.13
2022-08-31T00:29:28.149Z,21.08
2022-08-31T00:30:28.171Z,21.07
2022-08-31T00:31:28.195Z,21.08
2022-08-31T00:32:28.926Z,21.01
2022-08-31T00:33:28.080Z,21.01
2022-08-31T00:34:28.075Z,21.03
2022-08-31T00:35:28.052Z,21.01
2022-08-31T00:36:28.064Z,21.01
2022-08-31T00:37:28.025Z,21.01
2022-08-31T00:38:28.011Z,21.03
2022-08-31T00:39:27.984Z,21.01
2022-08-31T00:40:28.022Z,20.92
2022-08-31T00:41:27.972Z,20.83
2022-08-31T00:42:27.935Z,20.80
2022-08-31T00:43:27.934Z,20.73
2022-08-31T00:44:27.902Z,20.67
2022-08-31T00:45:27.908Z,20.53
2022-08-31T00:46:27.871Z,20.49
2022-08-31T00:47:27.878Z,20.36
2022-08-31T00:48:27.835Z,20.37
2022-08-31T00:49:27.811Z,20.33
2022-08-31T00:50:27.800Z,20.36
2022-08-31T00:51:27.775Z,20.34
2022-08-31T00:52:27.762Z,20.27
2022-08-31T00:53:27.770Z,20.27
2022-08-31T00:54:29.748Z,20.25
2022-08-31T00:55:27.710Z,20.17
2022-08-31T00:56:27.714Z,20.19
2022-08-31T00:57:30.067Z,20.22
2022-08-31T00:58:27.681Z,20.25
2022-08-31T00:59:27.678Z,20.27
2022-08-31T01:00:27.625Z,20.23
2022-08-31T01:01:27.697Z,20.19
2022-08-31T01:02:27.630Z,20.17
2022-08-31T01:03:27.603Z,20.23
2022-08-31T01:04:27.558Z,20.15
2022-08-31T01:05:27.540Z,20.14
2022-08-31T01:06:27.519Z,20.17
2022-08-31T01:07:27.507Z,20.11
2022-08-31T01:08:30.672Z,20.12
2022-08-31T01:09:27.490Z,20.12
2022-08-31T01:10:27.450Z,20.17
2022-08-31T01:11:27.438Z,20.19
2022-08-31T01:12:27.419Z,20.07
2022-08-31T01:13:27.423Z,20.15
2022-08-31T01:14:27.386Z,20.11
2022-08-31T01:15:27.364Z,20.19
2022-08-31T01:16:27.377Z,20.15
2022-08-31T01:17:27.339Z,20.11
2022-08-31T01:18:27.334Z,20.09
2022-08-31T01:19:27.323Z,20.15
2022-08-31T01:20:27.302Z,20.09
2022-08-31T01:21:27.266Z,20.09
2022-08-31T01:22:27.245Z,20.17
2022-08-31T01:23:27.239Z,20.11
2022-08-31T01:24:27.211Z,20.14
2022-08-31T01:25:33.362Z,20.11
2022-08-31T01:26:27.205Z,20.08
2022-08-31T01:27:27.156Z,20.12
2022-08-31T01:28:27.152Z,20.12
2022-08-31T01:29:27.124Z,20.14
2022-08-31T01:30:27.121Z,20.17
2022-08-31T01:31:27.163Z,20.11
2022-08-31T01:32:27.086Z,19.99
2022-08-31T01:33:27.055Z,20.08
2022-08-31T01:34:27.034Z,20.07
2022-08-31T01:35:27.027Z,20.08
2022-08-31T01:36:27.029Z,20.00
2022-08-31T01:37:29.403Z,19.99
2022-08-31T01:38:26.975Z,20.00
2022-08-31T01:39:26.961Z,20.05
2022-08-31T01:40:27.012Z,20.08
2022-08-31T01:41:26.927Z,20.02
2022-08-31T01:42:32.929Z,20.00
2022-08-31T01:43:26.888Z,19.94
2022-08-31T01:44:26.872Z,19.94
2022-08-31T01:45:26.853Z,20.02
2022-08-31T01:46:26.872Z,19.99
2022-08-31T01:47:26.846Z,19.99
2022-08-31T01:48:26.809Z,20.04
2022-08-31T01:49:26.780Z,20.02
2022-08-31T01:50:26.767Z,19.93
2022-08-31T01:51:26.762Z,19.97
2022-08-31T01:52:27.688Z,19.96
2022-08-31T01:53:26.751Z,19.96
2022-08-31T01:54:26.701Z,19.99
2022-08-31T01:55:26.679Z,19.92
2022-08-31T01:56:26.668Z,19.87
2022-08-31T01:57:33.367Z,19.87
2022-08-31T01:58:26.624Z,19.92
2022-08-31T01:59:26.630Z,19.86
2022-08-31T02:00:26.591Z,19.82
2022-08-31T02:01:33.626Z,19.92
2022-08-31T02:02:26.611Z,19.79
2022-08-31T02:03:26.542Z,19.84
2022-08-31T02:04:26.538Z,19.87
2022-08-31T02:05:26.549Z,19.75
2022-08-31T02:06:26.489Z,19.75
2022-08-31T02:07:26.659Z,19.74
2022-08-31T02:08:26.452Z,19.77
2022-08-31T02:09:26.435Z,19.75
2022-08-31T02:10:26.415Z,19.78
2022-08-31T02:11:26.422Z,19.75
2022-08-31T02:12:26.382Z,19.78
2022-08-31T02:13:26.371Z,19.77
2022-08-31T02:14:26.343Z,19.72
2022-08-31T02:15:26.353Z,19.82
2022-08-31T02:16:26.365Z,19.79
2022-08-31T02:17:26.299Z,19.77
2022-08-31T02:18:26.278Z,19.75
2022-08-31T02:19:26.261Z,19.78
2022-08-31T02:20:26.261Z,19.75
2022-08-31T02:21:26.231Z,19.75
2022-08-31T02:22:26.210Z,19.74
2022-08-31T02:23:26.193Z,19.79
2022-08-31T02:24:26.177Z,19.77
2022-08-31T02:25:26.158Z,19.79
2022-08-31T02:26:26.171Z,19.70
2022-08-31T02:27:26.142Z,19.77
2022-08-31T02:28:26.119Z,19.75
2022-08-31T02:29:26.081Z,19.72
2022-08-31T02:30:26.078Z,19.71
2022-08-31T02:31:26.084Z,19.64
2022-08-31T02:32:26.057Z,19.67
2022-08-31T02:33:26.033Z,19.60
2022-08-31T02:34:26.013Z,19.62
2022-08-31T02:35:25.976Z,19.63
2022-08-31T02:36:25.970Z,19.62
2022-08-31T02:37:25.945Z,19.63
2022-08-31T02:38:26.683Z,19.60
2022-08-31T02:39:25.919Z,19.64
2022-08-31T02:40:25.917Z,19.64
2022-08-31T02:41:25.873Z,19.59
2022-08-31T02:42:28.070Z,19.57
2022-08-31T02:43:26.082Z,19.62
2022-08-31T02:44:25.851Z,19.62
2022-08-31T02:45:25.810Z,19.62
2022-08-31T02:46:25.833Z,19.62
2022-08-31T02:47:25.784Z,19.60
2022-08-31T02:48:25.790Z,19.60
2022-08-31T02:49:26.943Z,19.59
2022-08-31T02:50:25.718Z,19.53
2022-08-31T02:51:25.708Z,19.53
2022-08-31T02:52:25.682Z,19.53
2022-08-31T02:53:25.665Z,19.56
2022-08-31T02:56:07.698Z,19.60
2022-08-31T02:57:07.681Z,19.47
2022-08-31T02:58:07.661Z,19.54
2022-08-31T02:59:07.650Z,19.53
2022-08-31T03:01:49.749Z,19.53
2022-08-31T03:02:49.769Z,19.52
2022-08-31T03:03:49.666Z,19.57
2022-08-31T03:04:49.668Z,19.53
2022-08-31T03:05:49.628Z,19.54
2022-08-31T03:06:49.633Z,19.54
2022-08-31T03:07:49.594Z,19.57
2022-08-31T03:08:49.577Z,19.54
2022-08-31T03:09:49.574Z,19.54
2022-08-31T03:10:49.558Z,19.45
2022-08-31T03:11:49.522Z,19.47
2022-08-31T03:12:49.505Z,19.53
2022-08-31T03:13:49.493Z,19.47
2022-08-31T03:14:49.472Z,19.54
2022-08-31T03:15:49.497Z,19.57
2022-08-31T03:16:51.734Z,19.56
2022-08-31T03:17:49.415Z,19.52
2022-08-31T03:18:49.398Z,19.56
2022-08-31T03:19:49.382Z,19.56
2022-08-31T03:20:49.362Z,19.53
2022-08-31T03:21:49.347Z,19.57
2022-08-31T03:22:49.346Z,19.53
2022-08-31T03:23:49.320Z,19.52
2022-08-31T03:24:49.301Z,19.56
2022-08-31T03:25:49.278Z,19.56
2022-08-31T03:26:49.260Z,19.52
2022-08-31T03:27:49.258Z,19.54
2022-08-31T03:28:49.237Z,19.50
2022-08-31T03:29:49.211Z,19.53
2022-08-31T03:30:49.287Z,19.49
2022-08-31T03:31:49.170Z,19.54
2022-08-31T03:32:49.157Z,19.52
2022-08-31T03:33:49.154Z,19.50
2022-08-31T03:34:49.126Z,19.49
2022-08-31T03:35:49.103Z,19.45
2022-08-31T03:36:49.085Z,19.38
2022-08-31T03:37:49.069Z,19.42
2022-08-31T03:38:49.069Z,19.37
2022-08-31T03:39:49.050Z,19.42
2022-08-31T03:40:49.042Z,19.42
2022-08-31T03:41:48.998Z,19.34
2022-08-31T03:42:48.982Z,19.35
2022-08-31T03:43:48.987Z,19.38
2022-08-31T03:44:48.947Z,19.38
2022-08-31T03:45:48.938Z,19.31
2022-08-31T03:46:48.937Z,19.37
2022-08-31T03:47:48.903Z,19.45
2022-08-31T03:48:48.875Z,19.34
2022-08-31T03:49:48.850Z,19.42
2022-08-31T03:50:48.924Z,19.34
2022-08-31T03:51:48.826Z,19.35
2022-08-31T03:52:48.820Z,19.31
2022-08-31T03:53:48.795Z,19.31
2022-08-31T03:54:48.765Z,19.38
2022-08-31T03:55:48.746Z,19.34
2022-08-31T03:56:48.733Z,19.34
2022-08-31T03:57:48.734Z,19.37
2022-08-31T03:58:48.695Z,19.32
2022-08-31T03:59:48.682Z,19.34
2022-08-31T04:00:48.664Z,19.32
2022-08-31T04:01:48.713Z,19.31
2022-08-31T04:02:48.688Z,19.26
2022-08-31T04:03:48.614Z,19.32
2022-08-31T04:04:48.611Z,19.38
2022-08-31T04:05:48.580Z,19.27
2022-08-31T04:06:48.558Z,19.32
2022-08-31T04:07:48.568Z,19.23
2022-08-31T04:08:48.526Z,19.22
2022-08-31T04:09:48.506Z,19.34
2022-08-31T04:10:48.500Z,19.22
2022-08-31T04:11:48.476Z,19.22
2022-08-31T04:12:48.474Z,19.23
2022-08-31T04:13:48.439Z,19.24
2022-08-31T04:14:48.435Z,19.22
2022-08-31T04:15:48.463Z,19.16
2022-08-31T04:16:48.378Z,19.16
2022-08-31T04:17:48.379Z,19.20
2022-08-31T04:18:48.342Z,19.19
2022-08-31T04:19:48.328Z,19.20
2022-08-31T04:20:48.325Z,19.20
2022-08-31T04:21:48.296Z,19.07
2022-08-31T04:22:48.288Z,19.20
2022-08-31T04:23:48.256Z,19.09
2022-08-31T04:24:48.236Z,19.16
2022-08-31T04:25:48.245Z,19.09
2022-08-31T04:26:48.211Z,19.16
2022-08-31T04:27:48.194Z,19.12
2022-08-31T04:28:48.174Z,19.17
2022-08-31T04:29:48.172Z,19.16
2022-08-31T04:30:48.192Z,19.15
2022-08-31T04:31:48.115Z,19.15
2022-08-31T04:32:48.098Z,19.09
2022-08-31T04:33:48.083Z,19.13
2022-08-31T04:34:48.089Z,19.09
2022-08-31T04:35:48.044Z,19.09
2022-08-31T04:36:48.033Z,19.08
2022-08-31T04:37:48.114Z,19.12
2022-08-31T04:38:48.009Z,19.13
2022-08-31T04:39:50.977Z,19.12
2022-08-31T04:40:48.031Z,19.08
2022-08-31T04:41:47.945Z,19.08
2022-08-31T04:42:47.953Z,19.05
2022-08-31T04:43:47.906Z,19.09
2022-08-31T04:44:47.888Z,19.01
2022-08-31T04:45:47.918Z,19.05
2022-08-31T04:46:47.853Z,19.07
2022-08-31T04:47:47.852Z,19.05
2022-08-31T04:48:47.820Z,19.05
2022-08-31T04:49:47.797Z,18.97
2022-08-31T04:50:47.783Z,18.97
2022-08-31T04:51:47.762Z,18.97
2022-08-31T04:53:03.918Z,18.93
2022-08-31T04:53:47.724Z,18.91
2022-08-31T04:54:47.718Z,18.88
2022-08-31T04:55:47.693Z,18.89
2022-08-31T04:56:47.689Z,18.86
2022-08-31T04:57:47.659Z,18.91
2022-08-31T04:58:47.639Z,18.88
2022-08-31T04:59:47.638Z,18.83
2022-08-31T05:00:47.604Z,18.81
2022-08-31T05:01:47.702Z,18.85
2022-08-31T05:02:51.389Z,18.83
2022-08-31T05:03:47.548Z,18.71
2022-08-31T05:04:47.550Z,18.70
2022-08-31T05:05:47.515Z,18.70
2022-08-31T05:06:47.527Z,18.74
2022-08-31T05:07:47.488Z,18.74
2022-08-31T05:08:47.494Z,18.64
2022-08-31T05:09:47.445Z,18.68
2022-08-31T05:10:47.435Z,18.58
2022-08-31T05:11:47.439Z,18.63
2022-08-31T05:12:47.395Z,18.61
2022-08-31T05:13:47.389Z,18.49
2022-08-31T05:14:47.377Z,18.60
2022-08-31T05:15:47.417Z,18.61
2022-08-31T05:16:47.324Z,18.56
2022-08-31T05:17:47.307Z,18.52
2022-08-31T05:18:47.289Z,18.54
2022-08-31T05:19:47.289Z,18.56
2022-08-31T05:20:47.250Z,18.52
2022-08-31T05:21:47.256Z,18.52
2022-08-31T05:22:47.802Z,18.52
2022-08-31T05:23:47.195Z,18.43
2022-08-31T05:24:47.185Z,18.51
2022-08-31T05:25:47.159Z,18.51
2022-08-31T05:26:47.169Z,18.49
2022-08-31T05:27:47.143Z,18.51
2022-08-31T05:28:47.111Z,18.48
2022-08-31T05:29:47.103Z,18.45
2022-08-31T05:30:47.195Z,18.41
2022-08-31T05:31:51.459Z,18.49
2022-08-31T05:32:47.062Z,18.43
2022-08-31T05:33:47.022Z,18.46
2022-08-31T05:34:47.010Z,18.49
2022-08-31T05:35:46.981Z,18.42
2022-08-31T05:36:46.979Z,18.34
2022-08-31T05:37:46.959Z,18.46
2022-08-31T05:38:46.951Z,18.34
2022-08-31T05:39:46.924Z,18.42
2022-08-31T05:40:46.973Z,18.38
2022-08-31T05:41:46.903Z,18.42
2022-08-31T05:42:46.855Z,18.46
2022-08-31T05:43:46.860Z,18.46
2022-08-31T05:44:46.843Z,18.48
2022-08-31T05:45:46.806Z,18.41
2022-08-31T05:46:54.753Z,18.49
2022-08-31T05:47:46.775Z,18.46
2022-08-31T05:48:49.610Z,18.56
2022-08-31T05:49:46.761Z,18.60
2022-08-31T05:50:46.716Z,18.52
2022-08-31T05:51:46.696Z,18.49
2022-08-31T05:52:46.707Z,18.54
2022-08-31T05:53:46.661Z,18.56
2022-08-31T05:54:46.667Z,18.57
2022-08-31T05:55:46.645Z,18.58
2022-08-31T05:56:46.624Z,18.64
2022-08-31T05:57:46.589Z,18.58
2022-08-31T05:58:46.572Z,18.56
2022-08-31T05:59:46.564Z,18.68
2022-08-31T06:00:46.561Z,18.64
2022-08-31T06:01:46.613Z,18.67
2022-08-31T06:02:46.502Z,18.67
2022-08-31T06:03:46.481Z,18.79
2022-08-31T06:04:46.505Z,18.79
2022-08-31T06:05:46.477Z,18.74
2022-08-31T06:06:46.428Z,18.74
2022-08-31T06:07:46.427Z,18.82
2022-08-31T06:08:46.398Z,18.86
2022-08-31T06:09:46.374Z,18.85
2022-08-31T06:12:28.272Z,18.96
2022-08-31T06:13:28.255Z,18.88
2022-08-31T06:14:28.234Z,18.91
2022-08-31T06:15:28.201Z,18.94
2022-08-31T06:16:28.264Z,19.01
2022-08-31T06:17:28.164Z,19.05
2022-08-31T06:18:28.171Z,19.08
2022-08-31T06:19:28.128Z,19.15
2022-08-31T06:20:28.199Z,19.05
2022-08-31T06:21:28.101Z,19.09
2022-08-31T06:22:28.105Z,19.07
2022-08-31T06:23:28.084Z,19.12
2022-08-31T06:24:28.046Z,19.13
2022-08-31T06:25:28.043Z,19.23
2022-08-31T06:26:28.008Z,19.22
2022-08-31T06:27:28.007Z,19.32
2022-08-31T06:28:27.979Z,19.26
2022-08-31T06:29:27.987Z,19.39
2022-08-31T06:30:27.973Z,19.37
2022-08-31T06:31:28.011Z,19.35
2022-08-31T06:32:27.915Z,19.37
2022-08-31T06:33:27.894Z,19.37
2022-08-31T06:34:27.862Z,19.37
2022-08-31T06:35:27.872Z,19.41
2022-08-31T06:36:28.168Z,19.35
2022-08-31T06:37:27.812Z,19.39
2022-08-31T06:38:27.793Z,19.38
2022-08-31T06:39:27.778Z,19.31
2022-08-31T06:40:27.863Z,19.31
2022-08-31T06:41:27.768Z,19.37
2022-08-31T06:42:27.721Z,19.30
2022-08-31T06:43:27.710Z,19.34
2022-08-31T06:44:27.712Z,19.34
2022-08-31T06:45:27.673Z,19.22
2022-08-31T06:46:27.722Z,19.23
2022-08-31T06:47:27.639Z,19.31
2022-08-31T06:48:27.629Z,19.31
2022-08-31T06:49:27.611Z,19.24
2022-08-31T06:50:27.583Z,19.19
2022-08-31T06:51:27.569Z,19.30
2022-08-31T06:52:27.570Z,19.13
2022-08-31T06:53:27.534Z,19.22
2022-08-31T06:54:30.106Z,19.15
2022-08-31T06:55:27.492Z,19.12
2022-08-31T06:56:27.480Z,19.15
2022-08-31T06:57:27.480Z,19.15
2022-08-31T06:58:27.456Z,19.16
2022-08-31T06:59:29.084Z,19.09
2022-08-31T07:00:27.411Z,19.22
2022-08-31T07:01:35.097Z,19.16
2022-08-31T07:02:27.485Z,19.27
2022-08-31T07:03:27.357Z,19.34
2022-08-31T07:04:27.338Z,19.24
2022-08-31T07:05:27.322Z,19.42
2022-08-31T07:06:27.300Z,19.37
2022-08-31T07:07:27.291Z,19.50
2022-08-31T07:08:27.286Z,19.54
2022-08-31T07:09:27.258Z,19.59
2022-08-31T07:10:27.228Z,19.62
2022-08-31T07:11:27.218Z,19.67
2022-08-31T07:12:27.221Z,19.75
2022-08-31T07:13:27.179Z,19.74
2022-08-31T07:14:27.164Z,19.86
2022-08-31T07:15:27.162Z,19.84
2022-08-31T07:16:27.268Z,19.90
2022-08-31T07:17:27.108Z,19.86
2022-08-31T07:18:27.091Z,19.90
2022-08-31T07:19:27.104Z,19.90
2022-08-31T07:20:27.056Z,19.93
2022-08-31T07:21:27.042Z,20.00
2022-08-31T07:22:27.028Z,20.00
2022-08-31T07:23:27.023Z,19.96
2022-08-31T07:24:27.012Z,20.07
2022-08-31T07:25:26.980Z,19.99
2022-08-31T07:26:26.970Z,20.17
2022-08-31T07:27:26.937Z,20.15
2022-08-31T07:28:26.925Z,20.18
2022-08-31T07:29:26.907Z,20.23
2022-08-31T07:30:29.062Z,20.29
2022-08-31T07:31:26.943Z,20.30
2022-08-31T07:32:26.887Z,20.34
2022-08-31T07:33:26.840Z,20.37
2022-08-31T07:34:26.816Z,20.41
2022-08-31T07:35:26.797Z,20.44
2022-08-31T07:36:26.793Z,20.49
2022-08-31T07:37:26.761Z,20.55
2022-08-31T07:38:26.767Z,20.49
2022-08-31T07:39:26.730Z,20.58
2022-08-31T07:40:26.764Z,20.50
2022-08-31T07:41:26.696Z,20.63
2022-08-31T07:42:26.680Z,20.60
2022-08-31T07:43:26.681Z,20.63
2022-08-31T07:44:26.642Z,20.67
2022-08-31T07:45:30.275Z,20.71
2022-08-31T07:46:26.670Z,20.68
2022-08-31T07:47:26.591Z,20.82
2022-08-31T07:48:26.603Z,20.77
2022-08-31T07:49:26.558Z,20.75
2022-08-31T07:50:26.542Z,20.92
2022-08-31T07:51:26.522Z,20.93
2022-08-31T07:52:26.509Z,20.92
2022-08-31T07:53:26.506Z,21.01
2022-08-31T07:54:26.472Z,21.03
2022-08-31T07:55:26.459Z,21.07
2022-08-31T07:56:26.440Z,21.07
2022-08-31T07:57:26.423Z,21.05
2022-08-31T07:58:26.421Z,21.08
2022-08-31T07:59:26.387Z,21.03
2022-08-31T08:00:26.380Z,21.14
2022-08-31T08:01:26.395Z,21.19
2022-08-31T08:02:26.502Z,21.18
2022-08-31T08:03:26.326Z,21.28
2022-08-31T08:04:26.300Z,21.25
2022-08-31T08:05:27.495Z,21.30
2022-08-31T08:06:26.271Z,21.28
2022-08-31T08:07:26.271Z,21.23
2022-08-31T08:08:26.236Z,21.32
2022-08-31T08:09:26.230Z,21.38
2022-08-31T08:10:26.232Z,21.38
2022-08-31T08:11:26.185Z,21.45
2022-08-31T08:12:26.203Z,21.47
2022-08-31T08:13:26.152Z,21.59
2022-08-31T08:14:26.134Z,21.55
2022-08-31T08:15:26.125Z,21.58
2022-08-31T08:16:26.149Z,21.55
2022-08-31T08:17:26.095Z,21.66
2022-08-31T08:18:26.064Z,21.67
2022-08-31T08:19:26.053Z,21.73
2022-08-31T08:20:34.573Z,21.78
2022-08-31T08:21:26.037Z,21.85
2022-08-31T08:22:48.356Z,22.04
2022-08-31T08:23:28.403Z,21.98
2022-08-31T08:24:25.965Z,21.96
2022-08-31T08:25:26.269Z,21.97
2022-08-31T08:26:26.413Z,22.09
2022-08-31T08:27:25.963Z,22.06
2022-08-31T08:28:39.252Z,22.11
2022-08-31T08:29:25.889Z,22.16
2022-08-31T08:30:25.869Z,22.15
2022-08-31T08:31:25.895Z,22.07
2022-08-31T08:32:25.837Z,22.18
2022-08-31T08:33:25.835Z,22.22
2022-08-31T08:34:29.564Z,22.30
2022-08-31T08:35:25.801Z,22.31
2022-08-31T08:36:25.776Z,22.30
2022-08-31T08:37:47.457Z,22.40
2022-08-31T08:38:25.740Z,22.44
2022-08-31T08:39:25.736Z,22.52
2022-08-31T08:40:25.752Z,22.55
2022-08-31T08:41:25.682Z,22.66
2022-08-31T08:42:25.672Z,22.73
2022-08-31T08:43:30.189Z,22.74
2022-08-31T08:44:25.656Z,22.81
2022-08-31T08:45:25.636Z,22.89
2022-08-31T08:46:34.787Z,22.96
2022-08-31T08:47:25.608Z,23.01
2022-08-31T08:48:25.573Z,23.01
2022-08-31T08:49:25.556Z,23.11
2022-08-31T08:50:25.558Z,23.21
2022-08-31T08:51:25.527Z,23.23
2022-08-31T08:52:25.508Z,23.23
2022-08-31T08:53:25.492Z,23.26
2022-08-31T08:54:25.488Z,23.25
2022-08-31T08:55:25.476Z,23.26
2022-08-31T08:56:33.529Z,23.42
2022-08-31T08:57:25.426Z,23.42
2022-08-31T08:58:25.408Z,23.52
2022-08-31T08:59:25.393Z,23.56
2022-08-31T09:00:25.399Z,23.59
2022-08-31T09:01:25.466Z,23.70
2022-08-31T09:02:25.433Z,23.78
2022-08-31T09:03:25.339Z,23.73
2022-08-31T09:04:25.325Z,23.71
2022-08-31T09:05:25.303Z,23.88
2022-08-31T09:06:25.303Z,23.86
2022-08-31T09:07:25.270Z,24.00
2022-08-31T09:08:25.250Z,24.21
2022-08-31T09:09:25.236Z,24.36
2022-08-31T09:10:25.235Z,24.47
2022-08-31T09:11:25.241Z,24.55
2022-08-31T09:12:25.190Z,24.59
2022-08-31T09:13:25.182Z,24.79
2022-08-31T09:14:25.147Z,24.84
2022-08-31T09:15:25.140Z,24.85
2022-08-31T09:16:25.151Z,24.90
2022-08-31T09:17:25.138Z,24.99
2022-08-31T09:18:25.101Z,25.06
2022-08-31T09:19:25.080Z,25.18
2022-08-31T09:20:25.065Z,25.34
2022-08-31T09:21:25.079Z,25.41
2022-08-31T09:22:25.053Z,25.55
2022-08-31T09:23:25.038Z,25.88
2022-08-31T09:24:25.009Z,26.07
2022-08-31T09:25:24.986Z,25.89
2022-08-31T09:26:24.975Z,25.96
2022-08-31T09:27:24.985Z,26.00
2022-08-31T09:28:24.942Z,26.03
2022-08-31T09:29:24.959Z,26.07
2022-08-31T09:30:24.917Z,26.26
2022-08-31T09:31:24.953Z,26.56
2022-08-31T09:32:26.343Z,26.71
2022-08-31T09:33:24.868Z,27.00
2022-08-31T09:34:25.461Z,27.16
2022-08-31T09:35:24.838Z,27.40
2022-08-31T09:36:24.830Z,27.53
2022-08-31T09:37:24.812Z,27.78
2022-08-31T09:38:24.803Z,28.12
2022-08-31T09:39:24.804Z,28.22
2022-08-31T09:40:24.833Z,28.43
2022-08-31T09:43:06.834Z,28.15
2022-08-31T09:44:06.813Z,28.01
2022-08-31T09:45:06.818Z,28.06
2022-08-31T09:46:06.861Z,27.80
2022-08-31T09:47:06.790Z,27.83
2022-08-31T09:48:06.762Z,28.17
2022-08-31T09:49:06.754Z,28.59
2022-08-31T09:50:06.767Z,28.62
2022-08-31T09:51:06.741Z,28.56
2022-08-31T09:52:06.723Z,28.62
2022-08-31T09:53:06.700Z,28.74
2022-08-31T09:54:06.693Z,28.83
2022-08-31T09:55:06.688Z,28.98
2022-08-31T09:56:06.721Z,29.07
2022-08-31T09:57:06.660Z,29.03
2022-08-31T09:58:06.647Z,28.93
2022-08-31T09:59:06.633Z,29.02
2022-08-31T10:00:06.623Z,29.18
2022-08-31T10:01:06.652Z,29.07
2022-08-31T10:02:06.620Z,29.24
2022-08-31T10:03:06.744Z,29.33
2022-08-31T10:04:06.579Z,29.50
2022-08-31T10:05:06.848Z,29.55
2022-08-31T10:06:06.560Z,29.78
2022-08-31T10:07:06.564Z,29.89
2022-08-31T10:08:06.540Z,29.98
2022-08-31T10:09:06.528Z,30.21
2022-08-31T10:10:06.533Z,30.20
2022-08-31T10:11:06.520Z,29.66
2022-08-31T10:12:06.499Z,29.70
2022-08-31T10:13:06.506Z,29.70
2022-08-31T10:14:06.480Z,29.68
2022-08-31T10:15:06.469Z,29.76
2022-08-31T10:16:06.508Z,29.83
2022-08-31T10:17:06.451Z,29.98
2022-08-31T10:18:06.481Z,30.02
2022-08-31T10:19:06.459Z,29.96
2022-08-31T10:20:06.440Z,30.08
2022-08-31T10:21:07.826Z,30.24
2022-08-31T10:22:06.473Z,29.81
2022-08-31T10:23:06.402Z,29.46
2022-08-31T10:24:06.410Z,29.12
2022-08-31T10:25:06.384Z,29.36
2022-08-31T10:26:06.372Z,29.50
2022-08-31T10:27:06.368Z,29.68
2022-08-31T10:28:06.358Z,29.76
2022-08-31T10:29:06.362Z,29.77
2022-08-31T10:30:06.333Z,29.91
2022-08-31T10:31:06.357Z,30.00
2022-08-31T10:32:06.317Z,30.14
2022-08-31T10:33:06.315Z,30.14
2022-08-31T10:34:06.297Z,30.03
2022-08-31T10:35:06.319Z,30.10
2022-08-31T10:36:06.286Z,30.08
2022-08-31T10:37:06.294Z,30.14
2022-08-31T10:38:06.268Z,30.21
2022-08-31T10:39:06.266Z,29.73
2022-08-31T10:40:06.285Z,29.25
2022-08-31T10:41:06.263Z,29.19
2022-08-31T10:42:06.237Z,29.34
2022-08-31T10:43:06.240Z,29.50
2022-08-31T10:44:06.217Z,29.77
2022-08-31T10:45:06.213Z,29.91
2022-08-31T10:46:06.260Z,29.80
2022-08-31T10:47:06.191Z,29.95
2022-08-31T10:48:06.201Z,29.87
2022-08-31T10:49:06.182Z,29.98
2022-08-31T10:50:06.169Z,29.92
2022-08-31T10:51:06.179Z,30.22
2022-08-31T10:52:06.160Z,29.95
2022-08-31T10:53:06.151Z,30.11
2022-08-31T10:54:06.160Z,30.20
2022-08-31T10:55:06.125Z,30.21
2022-08-31T10:56:06.122Z,30.14
2022-08-31T10:57:06.125Z,30.14
2022-08-31T10:58:06.109Z,30.13
2022-08-31T10:59:06.096Z,30.21
2022-08-31T11:00:06.137Z,30.21
2022-08-31T11:01:06.097Z,30.18
2022-08-31T11:02:06.065Z,30.14
2022-08-31T11:03:06.058Z,30.26
2022-08-31T11:04:06.131Z,29.98
2022-08-31T11:05:06.040Z,29.76
2022-08-31T11:06:06.049Z,29.73
2022-08-31T11:07:06.025Z,29.54
2022-08-31T11:08:06.022Z,29.39
2022-08-31T11:09:06.009Z,29.22
2022-08-31T11:10:06.009Z,28.94
2022-08-31T11:11:06.008Z,28.72
2022-08-31T11:12:05.978Z,28.61
2022-08-31T11:13:05.974Z,28.54
2022-08-31T11:14:05.959Z,28.38
2022-08-31T11:15:05.964Z,28.16
2022-08-31T11:16:05.989Z,27.97
2022-08-31T11:17:05.947Z,27.85
2022-08-31T11:18:05.919Z,28.06
2022-08-31T11:19:08.950Z,28.25
2022-08-31T11:20:05.902Z,28.50
2022-08-31T11:21:05.891Z,28.75
2022-08-31T11:22:05.900Z,28.96
2022-08-31T11:23:05.879Z,29.31
2022-08-31T11:24:05.854Z,29.33
2022-08-31T11:25:05.863Z,29.37
2022-08-31T11:26:05.844Z,29.41
2022-08-31T11:27:05.847Z,29.46
2022-08-31T11:28:05.818Z,29.66
2022-08-31T11:29:05.809Z,29.80
2022-08-31T11:30:05.823Z,29.74
2022-08-31T11:31:05.840Z,29.52
2022-08-31T11:32:05.776Z,29.31
2022-08-31T11:33:05.785Z,29.04
2022-08-31T11:34:16.097Z,28.61
2022-08-31T11:35:05.763Z,28.37
2022-08-31T11:36:07.398Z,28.05
2022-08-31T11:37:05.735Z,28.06
2022-08-31T11:38:05.740Z,27.91
2022-08-31T11:39:05.702Z,27.83
2022-08-31T11:40:05.754Z,27.61
2022-08-31T11:41:05.689Z,27.40
2022-08-31T11:42:05.688Z,27.40
2022-08-31T11:43:05.686Z,27.35
2022-08-31T11:44:05.685Z,27.27
2022-08-31T11:45:05.666Z,27.34
2022-08-31T11:46:05.681Z,27.34
2022-08-31T11:47:06.016Z,27.32
2022-08-31T11:48:05.613Z,27.34
2022-08-31T11:49:05.613Z,27.26
2022-08-31T11:50:05.609Z,27.34
2022-08-31T11:51:05.583Z,27.03
2022-08-31T11:52:05.582Z,26.95
2022-08-31T11:53:05.553Z,26.95
2022-08-31T11:54:05.567Z,26.94
2022-08-31T11:55:05.546Z,26.86
2022-08-31T11:56:05.518Z,26.65
2022-08-31T11:57:05.521Z,26.71
2022-08-31T11:58:05.497Z,26.65
2022-08-31T11:59:05.489Z,26.58
2022-08-31T12:00:05.474Z,26.60
2022-08-31T12:01:05.465Z,26.52
2022-08-31T12:02:05.529Z,26.48
2022-08-31T12:03:05.435Z,26.48
2022-08-31T12:04:06.544Z,26.36
2022-08-31T12:05:05.452Z,26.33
2022-08-31T12:06:05.414Z,26.39
2022-08-31T12:07:05.409Z,26.38
2022-08-31T12:08:05.374Z,26.30
2022-08-31T12:09:05.368Z,26.26
2022-08-31T12:10:05.347Z,26.26
2022-08-31T12:11:05.336Z,26.20
2022-08-31T12:12:05.348Z,26.11
2022-08-31T12:13:05.310Z,26.26
2022-08-31T12:14:05.294Z,26.20
2022-08-31T12:15:05.344Z,26.26
2022-08-31T12:16:05.400Z,26.08
2022-08-31T12:17:05.256Z,26.05
2022-08-31T12:18:05.244Z,26.07
2022-08-31T12:19:05.240Z,25.96
2022-08-31T12:20:05.263Z,25.93
2022-08-31T12:21:05.224Z,25.95
2022-08-31T12:22:05.186Z,25.98
2022-08-31T12:23:05.191Z,26.04
2022-08-31T12:24:05.183Z,26.08
2022-08-31T12:25:05.150Z,26.12
2022-08-31T12:26:05.137Z,26.07
2022-08-31T12:27:05.154Z,26.15
2022-08-31T12:28:05.114Z,26.20
2022-08-31T12:29:05.120Z,26.34
2022-08-31T12:30:05.150Z,26.43
2022-08-31T12:31:05.166Z,26.42
2022-08-31T12:32:10.113Z,26.51
2022-08-31T12:33:05.047Z,26.58
2022-08-31T12:34:05.048Z,26.70
2022-08-31T12:35:05.034Z,26.82
2022-08-31T12:36:05.003Z,27.13
2022-08-31T12:37:05.009Z,27.15
2022-08-31T12:38:05.005Z,27.16
2022-08-31T12:39:04.994Z,27.13
2022-08-31T12:40:05.058Z,27.16
2022-08-31T12:41:04.940Z,27.22
2022-08-31T12:42:04.947Z,27.50
2022-08-31T12:43:04.915Z,27.79
2022-08-31T12:44:04.910Z,27.79
2022-08-31T12:45:04.892Z,27.82
2022-08-31T12:46:04.955Z,27.70
2022-08-31T12:47:04.869Z,27.75
2022-08-31T12:48:04.883Z,27.70
2022-08-31T12:49:04.850Z,27.60
2022-08-31T12:50:04.841Z,27.69
2022-08-31T12:51:04.809Z,27.76
2022-08-31T12:52:04.811Z,28.16
2022-08-31T12:53:04.801Z,28.28
2022-08-31T12:54:04.783Z,28.50
2022-08-31T12:55:09.082Z,28.50
2022-08-31T12:56:04.766Z,28.53
2022-08-31T12:57:04.750Z,28.38
2022-08-31T12:58:04.747Z,28.37
2022-08-31T12:59:04.716Z,28.13